Time;durP1;ratioP1;P1;durP2;ratioP2;P2;SDS_P1;SDS_P2;PMS_P1;PMS_P2;Temp;Humidity;BMP_temperature;BMP_pressure;BME280_temperature;BME280_humidity;BME280_pressure;Samples;Min_cycle;Max_cycle;Signal;HPM_P1;HPM_P2
2021/10/16 00:01:20;;;;;;;7.35;1.65;;;;;;;7.31;63.67;100783.19;4988777;28;20055;-50
2021/10/16 00:03:47;;;;;;;6.43;3.42;;;;;;;7.33;63.65;100772.06;4992879;28;20073;-48
2021/10/16 00:06:14;;;;;;;8.38;2.55;;;;;;;7.35;63.04;100785.00;4985686;28;20100;-51
2021/10/16 00:08:42;;;;;;;10.55;2.40;;;;;;;7.35;64.21;100779.84;4991872;28;20057;-49
2021/10/16 00:11:10;;;;;;;10.23;2.47;;;;;;;7.35;63.88;100779.84;4984819;28;20128;-50
2021/10/16 00:13:39;;;;;;;12.65;2.40;;;;;;;7.38;64.57;100777.34;4989215;28;20735;-50
2021/10/16 00:16:09;;;;;;;6.85;2.15;;;;;;;7.38;64.34;100769.63;4999439;28;20069;-49
2021/10/16 00:18:38;;;;;;;6.95;1.98;;;;;;;7.40;64.77;100762.78;4985900;28;20046;-49
2021/10/16 00:21:06;;;;;;;8.23;1.98;;;;;;;7.41;64.00;100764.53;4990650;28;20042;-52
2021/10/16 00:23:34;;;;;;;11.77;2.80;;;;;;;7.41;63.56;100769.69;4984193;28;20387;-51
2021/10/16 00:26:00;;;;;;;8.43;1.77;;;;;;;7.43;63.86;100760.25;4994022;28;20368;-50
2021/10/16 00:28:27;;;;;;;9.70;2.38;;;;;;;7.46;63.57;100762.91;4997015;28;20449;-49
2021/10/16 00:30:54;;;;;;;4.32;1.70;;;;;;;7.51;63.13;100767.28;4993646;28;20062;-48
2021/10/16 00:33:20;;;;;;;6.13;1.77;;;;;;;7.54;63.95;100759.63;4988467;28;20046;-49
2021/10/16 00:35:47;;;;;;;5.40;1.60;;;;;;;7.54;63.96;100757.06;4987957;28;20046;-52
2021/10/16 00:38:14;;;;;;;6.80;1.25;;;;;;;7.55;63.71;100756.22;4991319;28;20042;-50
2021/10/16 00:40:40;;;;;;;6.15;1.98;;;;;;;7.56;65.20;100755.38;4993056;28;20077;-49
2021/10/16 00:43:07;;;;;;;6.82;1.88;;;;;;;7.55;65.01;100753.63;4990245;28;20062;-52
2021/10/16 00:45:34;;;;;;;4.70;1.80;;;;;;;7.57;64.74;100754.56;4989514;28;20050;-50
2021/10/16 00:48:00;;;;;;;5.18;1.55;;;;;;;7.60;64.15;100754.59;4985339;28;20055;-48
2021/10/16 00:50:27;;;;;;;7.35;2.65;;;;;;;7.60;64.52;100749.44;4993444;28;20113;-50
2021/10/16 00:52:54;;;;;;;6.40;1.90;;;;;;;7.61;63.75;100746.03;4986010;28;20113;-48
2021/10/16 00:55:22;;;;;;;7.25;1.65;;;;;;;7.60;63.93;100744.28;5002080;28;20066;-49
2021/10/16 00:57:50;;;;;;;6.57;2.17;;;;;;;7.61;64.34;100738.31;4996305;28;20050;-52
2021/10/16 01:00:17;;;;;;;8.80;1.50;;;;;;;7.62;63.53;100736.56;4994606;28;20080;-51
2021/10/16 01:02:44;;;;;;;7.40;1.67;;;;;;;7.62;64.62;100737.47;4989645;28;20467;-49
2021/10/16 01:05:11;;;;;;;4.55;1.52;;;;;;;7.65;63.76;100737.53;4993971;28;20042;-49
2021/10/16 01:07:39;;;;;;;4.25;1.63;;;;;;;7.67;64.37;100734.97;4997676;28;20041;-49
2021/10/16 01:10:09;;;;;;;5.97;1.95;;;;;;;7.69;64.44;100731.59;4992681;28;20054;-48
2021/10/16 01:12:37;;;;;;;9.35;1.73;;;;;;;7.72;63.96;100723.91;4989098;28;20154;-49
2021/10/16 01:15:08;;;;;;;9.98;1.75;;;;;;;7.74;63.76;100726.53;4990239;28;20057;-49
2021/10/16 01:17:36;;;;;;;4.85;1.52;;;;;;;7.77;65.19;100723.13;4993836;28;20058;-48
2021/10/16 01:20:10;;;;;;;6.60;1.80;;;;;;;7.78;65.39;100722.28;5005966;28;20073;-52
2021/10/16 01:22:39;;;;;;;6.60;1.88;;;;;;;7.81;64.08;100727.53;4988518;28;20043;-49
2021/10/16 01:25:10;;;;;;;8.20;2.03;;;;;;;7.80;64.90;100718.06;5006930;28;20058;-50
2021/10/16 01:27:38;;;;;;;8.73;1.58;;;;;;;7.80;63.42;100723.22;4988247;28;20054;-51
2021/10/16 01:30:07;;;;;;;9.35;1.55;;;;;;;7.80;63.96;100725.78;4988987;28;20046;-49
2021/10/16 01:32:34;;;;;;;13.25;2.25;;;;;;;7.80;65.07;100725.78;4987541;28;20042;-50
2021/10/16 01:35:04;;;;;;;3.78;1.17;;;;;;;7.81;65.46;100719.78;4991399;28;20046;-49
2021/10/16 01:37:31;;;;;;;5.43;1.38;;;;;;;7.81;65.11;100718.06;4988887;28;20051;-50
2021/10/16 01:39:58;;;;;;;8.10;1.77;;;;;;;7.81;65.26;100718.06;4986252;28;20060;-52
2021/10/16 01:42:25;;;;;;;9.57;1.52;;;;;;;7.82;65.29;100718.94;4993992;28;20042;-49
2021/10/16 01:44:51;;;;;;;8.55;1.50;;;;;;;7.84;65.25;100717.28;4987725;28;20096;-49
2021/10/16 01:47:18;;;;;;;6.47;1.77;;;;;;;7.85;63.90;100703.53;4988995;28;20095;-50
2021/10/16 01:49:44;;;;;;;5.38;1.60;;;;;;;7.85;65.36;100703.53;4997272;28;20104;-49
2021/10/16 01:52:11;;;;;;;7.75;1.92;;;;;;;7.86;63.93;100697.50;4987042;28;20058;-52
2021/10/16 01:54:38;;;;;;;7.68;1.77;;;;;;;7.87;64.47;100681.19;4999167;28;20117;-50
2021/10/16 01:57:04;;;;;;;11.93;1.70;;;;;;;7.87;64.93;100670.88;4988218;28;20054;-51
2021/10/16 01:59:31;;;;;;;2.83;1.25;;;;;;;7.89;64.55;100674.38;4988239;28;20470;-49
2021/10/16 02:02:04;;;;;;;5.18;1.20;;;;;;;7.88;64.57;100662.31;4989284;28;20141;-52
2021/10/16 02:04:32;;;;;;;6.85;1.50;;;;;;;7.88;66.24;100666.59;4985677;28;20109;-50
2021/10/16 02:06:58;;;;;;;9.88;1.65;;;;;;;7.88;64.92;100670.06;4992831;28;20100;-51
2021/10/16 02:09:25;;;;;;;6.28;1.60;;;;;;;7.90;65.20;100681.25;4986268;28;20039;-49
2021/10/16 02:11:51;;;;;;;6.03;1.55;;;;;;;7.89;66.51;100686.38;4984068;28;20050;-50
2021/10/16 02:14:18;;;;;;;10.35;2.05;;;;;;;7.84;66.26;100692.31;4984357;28;20050;-50
2021/10/16 02:16:45;;;;;;;7.28;1.52;;;;;;;7.81;66.11;100687.09;4984002;28;20042;-48
2021/10/16 02:19:11;;;;;;;5.88;1.85;;;;;;;7.81;67.07;100681.09;4987905;28;20050;-52
2021/10/16 02:21:38;;;;;;;7.03;1.50;;;;;;;7.82;65.60;100678.56;4986832;28;20043;-49
2021/10/16 02:24:05;;;;;;;5.63;1.55;;;;;;;7.84;66.26;100671.69;4993181;28;20038;-53
2021/10/16 02:26:31;;;;;;;4.03;1.55;;;;;;;7.86;66.12;100671.72;4985696;28;20054;-49
2021/10/16 02:28:58;;;;;;;6.70;1.63;;;;;;;7.90;67.06;100670.09;4985373;28;20054;-49
2021/10/16 02:31:25;;;;;;;10.35;1.38;;;;;;;7.90;66.18;100670.94;4984908;28;20053;-49
2021/10/16 02:33:51;;;;;;;8.38;1.33;;;;;;;7.91;66.66;100671.81;4985944;28;20477;-50
2021/10/16 02:36:19;;;;;;;7.82;2.17;;;;;;;7.92;66.28;100674.44;4989614;28;20052;-50
2021/10/16 02:38:46;;;;;;;4.70;1.55;;;;;;;7.93;66.55;100665.84;4987998;28;20109;-49
2021/10/16 02:41:12;;;;;;;8.18;1.30;;;;;;;7.92;67.08;100658.94;4988933;28;20073;-52
2021/10/16 02:43:39;;;;;;;8.63;2.03;;;;;;;7.93;66.26;100660.69;4988197;28;20050;-50
2021/10/16 02:46:06;;;;;;;5.13;1.65;;;;;;;7.97;67.03;100661.59;4995274;28;20046;-49
2021/10/16 02:48:33;;;;;;;7.03;2.17;;;;;;;8.01;66.44;100668.56;4988218;28;20056;-49
2021/10/16 02:50:59;;;;;;;7.65;1.25;;;;;;;8.07;66.44;100672.97;4986424;28;20054;-53
2021/10/16 02:53:26;;;;;;;7.85;1.83;;;;;;;8.10;66.65;100668.72;4999527;28;20086;-51
2021/10/16 02:55:53;;;;;;;7.95;1.30;;;;;;;8.12;66.68;100658.44;4989596;28;20109;-50
2021/10/16 02:58:19;;;;;;;8.63;2.13;;;;;;;8.12;66.81;100658.44;4990615;28;20054;-50
2021/10/16 03:00:46;;;;;;;8.45;1.90;;;;;;;8.15;66.88;100661.06;4987790;28;20042;-50
2021/10/16 03:03:12;;;;;;;7.60;1.60;;;;;;;8.18;66.62;100650.78;4989417;28;20046;-51
2021/10/16 03:05:40;;;;;;;6.80;1.45;;;;;;;8.19;67.43;100657.69;4993164;28;20042;-51
2021/10/16 03:08:06;;;;;;;9.25;1.20;;;;;;;8.19;67.27;100655.13;4988579;28;20049;-50
2021/10/16 03:10:33;;;;;;;5.72;1.35;;;;;;;8.19;65.87;100651.66;4986856;28;20054;-49
2021/10/16 03:12:59;;;;;;;7.05;1.67;;;;;;;8.14;66.02;100649.00;4987366;28;20128;-52
2021/10/16 03:15:26;;;;;;;8.10;1.63;;;;;;;8.10;65.71;100653.25;4992915;28;20125;-52
2021/10/16 03:17:53;;;;;;;7.10;1.55;;;;;;;8.06;66.29;100654.03;4994122;28;20050;-49
2021/10/16 03:20:19;;;;;;;5.20;1.60;;;;;;;8.03;66.95;100655.66;4989796;28;20108;-52
2021/10/16 03:22:46;;;;;;;6.70;1.70;;;;;;;8.00;67.16;100643.59;4996780;28;20120;-49
2021/10/16 03:25:12;;;;;;;7.45;1.98;;;;;;;7.96;66.58;100637.53;4986043;28;20050;-49
2021/10/16 03:27:39;;;;;;;6.97;1.73;;;;;;;7.93;66.63;100645.22;4990376;28;20657;-49
2021/10/16 03:30:06;;;;;;;8.85;2.22;;;;;;;7.89;67.06;100648.56;4993853;28;20445;-51
2021/10/16 03:32:33;;;;;;;5.43;1.65;;;;;;;7.86;66.54;100638.19;4990317;28;20057;-48
2021/10/16 03:35:00;;;;;;;8.55;2.20;;;;;;;7.81;66.23;100640.69;4991205;28;20376;-49
2021/10/16 03:37:26;;;;;;;8.40;1.67;;;;;;;7.76;66.88;100641.44;4993938;28;20046;-50
2021/10/16 03:39:53;;;;;;;4.88;1.50;;;;;;;7.71;67.78;100638.78;4986981;28;20108;-49
2021/10/16 03:42:19;;;;;;;9.98;1.88;;;;;;;7.67;66.31;100647.31;4987001;28;20077;-49
2021/10/16 03:44:46;;;;;;;6.90;1.58;;;;;;;7.64;67.02;100642.97;4992003;28;20120;-49
2021/10/16 03:47:12;;;;;;;8.27;1.77;;;;;;;7.63;67.97;100640.38;4991957;28;20050;-50
2021/10/16 03:49:39;;;;;;;7.05;1.60;;;;;;;7.63;68.50;100636.06;4991524;28;20084;-49
2021/10/16 03:52:05;;;;;;;3.92;1.45;;;;;;;7.64;67.54;100635.25;4989773;28;20046;-49
2021/10/16 03:54:32;;;;;;;10.10;2.33;;;;;;;7.66;68.59;100630.97;4988070;28;20427;-52
2021/10/16 03:56:59;;;;;;;10.98;2.05;;;;;;;7.66;67.25;100630.97;4987958;28;20046;-50
2021/10/16 03:59:25;;;;;;;4.35;1.88;;;;;;;7.68;67.47;100628.41;4989663;28;20047;-51
2021/10/16 04:01:52;;;;;;;9.75;2.08;;;;;;;7.70;68.21;100631.91;4989580;28;20058;-51
2021/10/16 04:04:19;;;;;;;6.95;1.83;;;;;;;7.71;67.48;100629.34;4985117;28;20105;-51
2021/10/16 04:06:45;;;;;;;5.55;2.42;;;;;;;7.74;67.87;100627.66;4990916;28;20150;-49
2021/10/16 04:09:13;;;;;;;12.65;2.65;;;;;;;7.75;68.58;100625.13;4989112;28;20077;-49
2021/10/16 04:11:39;;;;;;;6.55;1.77;;;;;;;7.79;67.63;100636.34;4988899;28;20491;-50
2021/10/16 04:14:06;;;;;;;10.85;2.08;;;;;;;7.82;68.30;100631.25;4994171;28;20046;-51
2021/10/16 04:16:32;;;;;;;9.75;2.05;;;;;;;7.86;68.48;100627.03;4989849;28;20058;-49
2021/10/16 04:18:59;;;;;;;6.82;2.35;;;;;;;7.87;68.60;100621.88;4996718;28;20043;-52
2021/10/16 04:21:25;;;;;;;13.48;2.30;;;;;;;7.88;67.11;100621.06;4986058;28;20116;-49
2021/10/16 04:23:52;;;;;;;4.30;1.92;;;;;;;7.88;68.87;100621.06;4986734;28;20055;-50
2021/10/16 04:26:19;;;;;;;10.48;2.72;;;;;;;7.89;67.79;100622.78;4991815;28;20051;-52
2021/10/16 04:28:45;;;;;;;6.57;2.03;;;;;;;7.91;68.38;100615.06;4990504;28;20062;-49
2021/10/16 04:31:12;;;;;;;8.18;2.05;;;;;;;7.93;67.20;100618.53;4995994;28;20104;-49
2021/10/16 04:33:39;;;;;;;5.80;1.98;;;;;;;7.94;67.66;100615.13;4993829;28;20454;-49
2021/10/16 04:36:05;;;;;;;7.05;2.05;;;;;;;7.97;67.62;100616.03;4988567;28;20073;-52
2021/10/16 04:38:32;;;;;;;9.65;2.35;;;;;;;7.98;67.81;100615.19;4991646;28;20734;-51
2021/10/16 04:40:59;;;;;;;9.27;2.38;;;;;;;8.00;68.03;100610.06;4995304;28;20116;-52
2021/10/16 04:43:25;;;;;;;8.23;2.50;;;;;;;8.01;68.58;100613.53;4992105;28;20054;-49
2021/10/16 04:45:52;;;;;;;11.65;2.78;;;;;;;8.01;67.87;100611.81;4991003;28;20675;-50
2021/10/16 04:48:18;;;;;;;9.45;2.83;;;;;;;8.03;68.30;100614.41;4988895;28;20046;-50
2021/10/16 04:50:45;;;;;;;5.88;2.30;;;;;;;8.04;67.56;100611.00;4986459;28;20054;-49
2021/10/16 04:53:12;;;;;;;7.15;2.30;;;;;;;8.05;67.40;100610.16;4990601;28;20564;-48
2021/10/16 04:55:39;;;;;;;7.07;2.55;;;;;;;8.08;67.95;100613.63;4988467;28;20123;-49
2021/10/16 04:58:06;;;;;;;6.80;2.55;;;;;;;8.08;68.34;100607.63;4995333;28;20058;-51
2021/10/16 05:00:33;;;;;;;8.70;2.42;;;;;;;8.10;68.63;100611.09;4989268;28;20046;-51
2021/10/16 05:02:59;;;;;;;6.85;2.50;;;;;;;8.12;67.50;100614.56;4991749;28;20510;-49
2021/10/16 05:05:27;;;;;;;8.38;2.80;;;;;;;8.12;67.36;100606.81;4992068;28;20058;-49
2021/10/16 05:07:53;;;;;;;7.78;2.88;;;;;;;8.12;67.41;100609.41;4989139;28;20404;-49
2021/10/16 05:10:20;;;;;;;9.38;2.85;;;;;;;8.12;68.11;100604.25;4990595;28;20108;-51
2021/10/16 05:12:47;;;;;;;8.65;2.22;;;;;;;8.12;67.98;100596.50;4985761;28;20074;-51
2021/10/16 05:15:13;;;;;;;8.02;2.55;;;;;;;8.12;68.65;100593.94;4999832;28;20046;-51
2021/10/16 05:17:40;;;;;;;10.63;2.80;;;;;;;8.14;68.32;100591.38;4990466;28;20047;-52
2021/10/16 05:20:07;;;;;;;7.50;2.33;;;;;;;8.17;67.99;100596.59;4994115;28;20054;-53
2021/10/16 05:22:35;;;;;;;9.77;2.20;;;;;;;8.18;67.92;100594.00;4989987;28;20049;-48
2021/10/16 05:25:01;;;;;;;7.28;2.58;;;;;;;8.21;69.07;100593.22;4993792;28;20109;-49
2021/10/16 05:27:28;;;;;;;8.63;2.75;;;;;;;8.22;68.95;100598.41;4998086;28;20054;-49
2021/10/16 05:29:54;;;;;;;8.32;2.80;;;;;;;8.23;67.51;100597.56;4989453;28;20104;-49
2021/10/16 05:32:21;;;;;;;8.38;2.67;;;;;;;8.23;67.80;100592.38;4997740;28;20053;-48
2021/10/16 05:34:48;;;;;;;5.20;2.58;;;;;;;8.25;67.56;100594.13;4992055;28;20046;-50
2021/10/16 05:37:14;;;;;;;9.73;2.42;;;;;;;8.27;69.30;100597.59;4995447;28;20676;-52
2021/10/16 05:39:41;;;;;;;8.43;2.47;;;;;;;8.30;67.69;100597.63;4984900;28;20046;-49
2021/10/16 05:42:08;;;;;;;11.93;4.57;;;;;;;8.30;67.74;100598.50;4989469;28;20054;-50
2021/10/16 05:44:34;;;;;;;17.55;6.15;;;;;;;8.33;68.75;100605.41;4992618;28;20050;-51
2021/10/16 05:47:01;;;;;;;11.43;4.45;;;;;;;8.35;68.94;100606.34;4992132;28;20050;-49
2021/10/16 05:49:28;;;;;;;10.00;3.85;;;;;;;8.36;68.10;100602.91;4991699;28;20038;-50
2021/10/16 05:51:54;;;;;;;8.05;2.97;;;;;;;8.39;67.74;100596.91;4984226;28;20128;-49
2021/10/16 05:54:21;;;;;;;7.47;2.70;;;;;;;8.39;69.27;100605.53;4991648;28;20054;-51
2021/10/16 05:56:48;;;;;;;9.05;3.47;;;;;;;8.41;69.03;100601.25;5000647;28;20514;-50
2021/10/16 05:59:14;;;;;;;8.80;3.47;;;;;;;8.42;68.57;100600.41;4995352;28;20050;-49
2021/10/16 06:01:41;;;;;;;7.22;3.38;;;;;;;8.44;69.35;100596.13;4997253;28;20050;-50
2021/10/16 06:04:08;;;;;;;10.27;3.63;;;;;;;8.44;68.51;100593.53;4994330;28;20042;-49
2021/10/16 06:06:35;;;;;;;8.55;2.97;;;;;;;8.45;68.24;100590.13;4988051;28;20050;-51
2021/10/16 06:09:02;;;;;;;6.70;3.50;;;;;;;8.46;68.44;100591.88;5000767;28;20399;-50
2021/10/16 06:11:29;;;;;;;11.15;3.33;;;;;;;8.47;68.25;100591.03;4989944;28;20046;-49
2021/10/16 06:13:55;;;;;;;7.78;2.85;;;;;;;8.48;68.39;100590.16;4994591;28;20054;-50
2021/10/16 06:16:22;;;;;;;12.45;3.10;;;;;;;8.49;69.04;100589.31;4988894;28;20054;-52
2021/10/16 06:18:49;;;;;;;8.65;3.88;;;;;;;8.51;69.31;100596.22;4990291;28;20486;-49
2021/10/16 06:21:15;;;;;;;10.38;3.47;;;;;;;8.53;68.69;100591.94;4989838;28;20049;-50
2021/10/16 06:23:42;;;;;;;9.07;3.47;;;;;;;8.54;68.69;100586.00;4990234;28;20115;-50
2021/10/16 06:26:08;;;;;;;12.23;4.38;;;;;;;8.56;68.82;100594.59;4991468;28;20101;-49
2021/10/16 06:28:35;;;;;;;6.80;3.22;;;;;;;8.56;69.69;100594.59;4989980;28;20503;-49
2021/10/16 06:31:02;;;;;;;11.30;3.58;;;;;;;8.58;68.96;100593.78;4993760;28;20050;-50
2021/10/16 06:33:28;;;;;;;10.85;4.13;;;;;;;8.59;69.68;100585.22;4988531;28;20050;-54
2021/10/16 06:35:55;;;;;;;10.65;3.75;;;;;;;8.63;69.39;100595.56;4997407;28;20054;-53
2021/10/16 06:38:22;;;;;;;6.78;2.88;;;;;;;8.62;69.28;100599.88;4989864;28;20050;-50
2021/10/16 06:40:48;;;;;;;8.43;3.00;;;;;;;8.62;69.27;100605.03;4992501;28;20053;-53
2021/10/16 06:43:15;;;;;;;10.30;3.25;;;;;;;8.62;70.06;100594.72;4993976;28;20046;-50
2021/10/16 06:45:42;;;;;;;6.32;2.90;;;;;;;8.64;69.78;100605.06;4992082;28;20053;-51
2021/10/16 06:48:09;;;;;;;15.23;6.20;;;;;;;8.64;69.80;100608.50;4991529;28;20434;-53
2021/10/16 06:50:35;;;;;;;10.32;3.53;;;;;;;8.65;69.45;100615.38;4988404;28;20109;-51
2021/10/16 06:53:02;;;;;;;8.02;3.08;;;;;;;8.65;70.16;100607.63;4991904;28;20482;-50
2021/10/16 06:55:29;;;;;;;9.85;3.53;;;;;;;8.66;69.12;100609.41;4987178;28;20195;-49
2021/10/16 06:57:55;;;;;;;9.07;3.20;;;;;;;8.69;69.23;100606.88;4995276;28;20058;-49
2021/10/16 07:00:22;;;;;;;10.55;3.88;;;;;;;8.72;69.93;100606.03;4989600;28;20054;-52
2021/10/16 07:02:48;;;;;;;10.70;3.92;;;;;;;8.73;68.79;100603.47;4982660;28;20050;-49
2021/10/16 07:05:15;;;;;;;8.63;3.58;;;;;;;8.73;69.82;100603.47;4986575;28;20108;-49
2021/10/16 07:07:42;;;;;;;8.60;2.97;;;;;;;8.72;69.24;100596.56;4989589;28;20053;-51
2021/10/16 07:10:09;;;;;;;10.35;3.25;;;;;;;8.68;69.66;100610.28;4989405;28;20104;-49
2021/10/16 07:12:36;;;;;;;8.73;3.83;;;;;;;8.66;70.22;100621.44;4986187;28;20376;-52
2021/10/16 07:15:04;;;;;;;9.80;3.25;;;;;;;8.66;70.19;100611.09;4991971;28;20042;-50
2021/10/16 07:17:31;;;;;;;10.82;3.97;;;;;;;8.66;69.66;100617.16;4985507;28;20120;-49
2021/10/16 07:19:57;;;;;;;11.93;3.78;;;;;;;8.67;69.83;100608.53;4990499;28;20058;-50
2021/10/16 07:22:24;;;;;;;14.50;4.05;;;;;;;8.71;69.96;100614.59;4981929;28;20048;-50
2021/10/16 07:24:51;;;;;;;9.15;4.00;;;;;;;8.71;70.64;100610.31;4992413;28;20513;-52
2021/10/16 07:27:18;;;;;;;8.52;4.40;;;;;;;8.74;69.91;100612.94;4987487;28;20105;-50
2021/10/16 07:29:44;;;;;;;8.40;3.47;;;;;;;8.85;70.22;100617.41;4983973;28;20050;-49
2021/10/16 07:32:11;;;;;;;9.10;2.92;;;;;;;8.95;70.25;100619.25;4987661;28;20458;-51
2021/10/16 07:34:38;;;;;;;10.60;3.83;;;;;;;9.09;70.40;100626.31;4987175;28;20054;-51
2021/10/16 07:37:04;;;;;;;9.52;4.47;;;;;;;9.29;70.50;100633.44;4988890;28;20111;-52
2021/10/16 07:39:32;;;;;;;8.88;3.42;;;;;;;9.55;70.23;100632.91;4987582;28;20622;-50
2021/10/16 07:41:58;;;;;;;7.05;3.28;;;;;;;9.85;70.04;100644.38;4993144;28;20109;-49
2021/10/16 07:44:25;;;;;;;7.32;3.97;;;;;;;10.22;69.54;100644.72;4983409;28;20098;-50
2021/10/16 07:46:52;;;;;;;12.20;4.88;;;;;;;10.77;69.77;100643.41;4984809;28;20116;-51
2021/10/16 07:49:18;;;;;;;11.52;4.45;;;;;;;11.48;67.99;100639.41;4984473;28;20049;-50
2021/10/16 07:51:45;;;;;;;8.68;4.00;;;;;;;12.11;67.58;100647.34;4992104;28;20050;-53
2021/10/16 07:54:12;;;;;;;15.35;3.72;;;;;;;12.71;65.60;100654.25;4986500;28;20046;-51
2021/10/16 07:56:38;;;;;;;12.93;3.92;;;;;;;12.99;64.99;100648.97;4987072;28;20077;-52
2021/10/16 07:59:05;;;;;;;12.05;4.22;;;;;;;13.02;64.50;100646.34;4982124;28;20046;-51
2021/10/16 08:01:33;;;;;;;11.95;4.20;;;;;;;13.05;64.20;100653.28;4989918;28;20054;-51
2021/10/16 08:03:59;;;;;;;13.25;4.05;;;;;;;13.13;63.95;100650.66;4994297;28;20611;-50
2021/10/16 08:06:27;;;;;;;10.50;3.85;;;;;;;13.30;64.36;100651.44;4985066;28;20058;-50
2021/10/16 08:08:53;;;;;;;10.93;4.00;;;;;;;13.42;63.94;100652.25;4989014;28;20584;-51
2021/10/16 08:11:20;;;;;;;10.82;4.43;;;;;;;13.46;64.01;100651.38;4989105;28;20090;-51
2021/10/16 08:13:47;;;;;;;8.18;3.13;;;;;;;13.44;63.08;100640.13;4989335;28;20050;-52
2021/10/16 08:16:13;;;;;;;9.68;3.78;;;;;;;13.45;63.73;100641.84;4987796;28;20124;-54
2021/10/16 08:18:40;;;;;;;8.45;3.92;;;;;;;13.37;63.32;100640.16;4992520;28;20054;-50
2021/10/16 08:21:07;;;;;;;10.88;4.20;;;;;;;13.29;63.25;100635.84;4991042;28;20053;-50
2021/10/16 08:23:33;;;;;;;9.02;3.85;;;;;;;13.21;63.55;100635.91;4990567;28;20537;-52
2021/10/16 08:26:00;;;;;;;11.98;3.83;;;;;;;13.08;63.46;100633.31;4990360;28;20054;-51
2021/10/16 08:28:29;;;;;;;11.02;4.30;;;;;;;13.03;64.63;100631.63;4990178;28;20437;-51
2021/10/16 08:30:58;;;;;;;10.75;4.35;;;;;;;13.02;64.09;100632.47;4991095;28;20054;-51
2021/10/16 08:33:25;;;;;;;9.75;4.20;;;;;;;13.10;65.03;100636.78;4987685;28;20050;-50
2021/10/16 08:35:51;;;;;;;8.00;4.13;;;;;;;13.20;65.03;100628.94;4988009;28;20050;-51
2021/10/16 08:38:18;;;;;;;9.50;3.90;;;;;;;13.21;63.96;100631.53;4991496;28;20463;-53
2021/10/16 08:40:49;;;;;;;13.77;4.82;;;;;;;13.22;65.06;100635.88;4991215;28;20626;-52
2021/10/16 08:43:17;;;;;;;13.50;4.63;;;;;;;13.23;65.15;100636.72;4988010;28;20054;-50
2021/10/16 08:45:44;;;;;;;10.27;4.80;;;;;;;13.30;64.30;100633.25;4987711;28;20081;-50
2021/10/16 08:48:12;;;;;;;10.57;3.83;;;;;;;13.57;65.49;100646.13;4983680;28;20100;-51
2021/10/16 08:50:40;;;;;;;12.70;4.07;;;;;;;13.78;64.73;100644.31;4988191;28;21761;-51
2021/10/16 08:53:06;;;;;;;10.40;3.63;;;;;;;14.03;63.47;100645.00;4996698;28;20050;-51
2021/10/16 08:55:33;;;;;;;12.32;4.18;;;;;;;14.07;63.39;100644.09;4988098;28;20105;-50
2021/10/16 08:57:59;;;;;;;10.10;4.10;;;;;;;14.20;62.92;100646.59;4990956;28;20085;-54
2021/10/16 09:00:52;;;;;;;9.27;4.18;;;;;;;14.37;63.95;100660.34;4988582;28;20062;-52
2021/10/16 09:03:29;;;;;;;11.82;4.40;;;;;;;14.61;62.38;100661.00;5003440;28;20050;-50
2021/10/16 09:06:19;;;;;;;12.40;5.30;;;;;;;14.75;62.30;100654.75;4986500;28;20050;-53
2021/10/16 09:08:53;;;;;;;10.35;4.10;;;;;;;14.92;61.88;100659.00;4989549;28;20615;-54
2021/10/16 09:11:27;;;;;;;12.48;3.78;;;;;;;15.47;61.21;100664.41;4990280;28;20057;-51
2021/10/16 09:13:58;;;;;;;11.63;4.50;;;;;;;15.86;60.31;100662.13;4985687;28;20050;-53
2021/10/16 09:16:32;;;;;;;13.35;5.00;;;;;;;16.17;60.54;100656.44;4994864;28;20128;-51
2021/10/16 09:19:18;;;;;;;11.23;5.60;;;;;;;16.96;58.82;100651.56;4990087;28;20104;-54
2021/10/16 09:21:54;;;;;;;8.10;4.32;;;;;;;18.01;57.39;100640.59;4991929;28;20671;-52
2021/10/16 09:24:32;;;;;;;8.43;4.50;;;;;;;19.17;56.50;100638.47;4991097;28;20054;-51
2021/10/16 09:27:03;;;;;;;9.68;5.28;;;;;;;20.32;54.37;100644.56;4987703;28;20093;-51
2021/10/16 09:29:33;;;;;;;12.20;5.00;;;;;;;20.83;52.48;100644.59;4991605;28;20630;-54
2021/10/16 09:32:01;;;;;;;;;;;;;;;21.09;52.55;100650.69;4987552;28;20097;-54
2021/10/16 09:34:32;;;;;;;10.48;5.32;;;;;;;21.94;49.99;100654.47;4987192;28;19929;-55
2021/10/16 09:37:06;;;;;;;10.65;4.50;;;;;;;22.39;49.02;100647.31;4989189;28;20046;-52
2021/10/16 09:39:35;;;;;;;15.93;4.82;;;;;;;23.02;47.50;100642.84;4986453;28;20096;-53
2021/10/16 09:42:02;;;;;;;12.82;5.20;;;;;;;23.55;46.12;100651.03;4985247;28;20620;-50
2021/10/16 09:44:31;;;;;;;10.00;4.70;;;;;;;23.84;46.34;100638.16;4987181;28;20042;-52
2021/10/16 09:47:12;;;;;;;12.20;5.93;;;;;;;23.99;44.60;100638.34;4991793;28;20066;-50
2021/10/16 09:49:42;;;;;;;7.85;4.28;;;;;;;23.87;44.14;100627.44;4992868;28;20049;-52
2021/10/16 09:52:15;;;;;;;9.40;4.32;;;;;;;23.66;43.82;100633.75;4992688;28;20655;-53
2021/10/16 09:54:48;;;;;;;13.90;5.18;;;;;;;23.78;44.84;100625.25;4984861;28;20046;-50
2021/10/16 09:57:19;;;;;;;11.23;4.82;;;;;;;23.74;44.01;100624.53;4984812;28;20050;-52
2021/10/16 09:59:45;;;;;;;11.13;5.10;;;;;;;23.71;43.88;100627.31;4989349;28;20038;-52
2021/10/16 10:02:12;;;;;;;8.73;4.20;;;;;;;23.42;44.39;100629.59;4989974;28;20050;-50
2021/10/16 10:04:41;;;;;;;7.88;4.57;;;;;;;23.17;44.81;100625.41;4995904;28;20047;-50
2021/10/16 10:07:09;;;;;;;10.77;4.80;;;;;;;23.27;45.22;100631.13;4988781;28;20077;-51
2021/10/16 10:09:39;;;;;;;11.63;4.38;;;;;;;23.20;43.54;100632.38;4982504;28;20046;-52
2021/10/16 10:12:07;;;;;;;9.23;3.85;;;;;;;23.20;44.24;100635.03;4994523;28;20041;-50
2021/10/16 10:14:34;;;;;;;10.48;4.13;;;;;;;23.09;44.79;100627.56;4986464;28;20142;-53
2021/10/16 10:17:06;;;;;;;12.35;4.70;;;;;;;22.94;44.73;100631.78;4981075;28;20038;-53
2021/10/16 10:19:39;;;;;;;11.07;4.82;;;;;;;22.74;44.99;100633.53;4986793;28;20054;-51
2021/10/16 10:22:14;;;;;;;10.25;4.10;;;;;;;22.45;45.37;100635.63;4983939;28;20061;-54
2021/10/16 10:24:46;;;;;;;8.63;4.18;;;;;;;22.26;46.03;100631.13;4989127;28;20068;-52
2021/10/16 10:27:15;;;;;;;11.13;3.95;;;;;;;21.99;45.60;100636.69;4996363;28;20123;-55
2021/10/16 10:29:46;;;;;;;6.43;3.25;;;;;;;21.72;46.60;100623.69;4984481;28;20047;-52
2021/10/16 10:32:19;;;;;;;9.82;4.03;;;;;;;21.58;46.85;100622.44;4983132;28;20062;-53
2021/10/16 10:35:08;;;;;;;7.03;3.67;;;;;;;21.43;47.17;100617.78;4989119;28;20049;-55
2021/10/16 10:37:41;;;;;;;10.70;3.97;;;;;;;21.38;47.60;100619.75;4982372;28;20143;-51
2021/10/16 10:40:19;;;;;;;10.27;3.15;;;;;;;21.21;47.53;100618.59;4984201;28;20105;-52
2021/10/16 10:42:49;;;;;;;6.40;3.22;;;;;;;21.01;47.63;100617.59;4988298;28;20105;-52
2021/10/16 10:45:27;;;;;;;8.75;2.80;;;;;;;20.77;47.36;100608.81;4984830;28;20057;-52
2021/10/16 10:47:57;;;;;;;5.97;3.42;;;;;;;20.50;48.51;100611.53;4987530;28;20058;-51
2021/10/16 10:50:46;;;;;;;8.55;3.33;;;;;;;20.34;48.95;100601.53;4984252;28;20054;-52
2021/10/16 10:53:23;;;;;;;7.80;3.10;;;;;;;20.25;48.84;100596.56;4984491;28;20443;-49
2021/10/16 10:55:54;;;;;;;7.85;3.63;;;;;;;20.20;49.65;100594.13;4982597;28;20148;-49
2021/10/16 10:58:21;;;;;;;6.53;3.17;;;;;;;20.14;49.72;100604.84;4987010;28;20057;-52
2021/10/16 11:00:48;;;;;;;7.75;3.47;;;;;;;20.04;49.20;100593.78;4992696;28;20042;-51
2021/10/16 11:03:43;;;;;;;6.38;3.53;;;;;;;19.88;50.05;100588.13;4986816;28;20101;-52
2021/10/16 11:06:17;;;;;;;8.50;3.53;;;;;;;19.92;50.27;100589.75;4983194;28;20050;-52
2021/10/16 11:08:48;;;;;;;9.68;3.80;;;;;;;19.93;50.28;100591.50;4982468;28;20050;-54
2021/10/16 11:11:15;;;;;;;9.05;3.95;;;;;;;19.89;50.04;100595.09;4991628;28;20042;-49
2021/10/16 11:13:42;;;;;;;12.45;4.22;;;;;;;19.88;50.45;100594.25;4980982;28;20104;-54
2021/10/16 11:16:08;;;;;;;10.18;3.35;;;;;;;19.85;50.23;100598.75;4988185;28;20050;-52
2021/10/16 11:18:36;;;;;;;7.10;3.38;;;;;;;19.77;50.59;100583.25;4985850;28;20062;-52
2021/10/16 11:21:08;;;;;;;10.07;4.63;;;;;;;19.74;51.17;100580.72;4985551;28;20038;-52
2021/10/16 11:23:37;;;;;;;7.40;3.50;;;;;;;19.70;50.74;100577.34;4985143;28;20070;-53
2021/10/16 11:26:07;;;;;;;8.05;3.60;;;;;;;19.59;51.16;100566.31;4985155;28;20054;-53
2021/10/16 11:28:36;;;;;;;6.88;3.10;;;;;;;19.47;51.25;100570.19;4986823;28;20050;-52
2021/10/16 11:31:05;;;;;;;7.18;3.67;;;;;;;19.48;51.08;100567.50;4982878;28;20061;-51
2021/10/16 11:33:38;;;;;;;5.45;3.10;;;;;;;19.48;51.50;100569.25;4985950;28;20453;-52